Terminal Aerodrome Forecast
Issued by NWS Bismarck, ND

Home | Current Version | Previous Version | Text Only | Print | Product List | Glossary Off
Versions: 1 2 3 4 5 6 7 8 9 10 11 12 13 14 15 16 17

000
FTUS43 KBIS 060523
TAFBIS
TAF
KBIS 060523Z 0606/0706 VRB04KT P6SM FEW250
     FM061000 21005KT P6SM FEW250
     FM061200 29008KT P6SM SCT250
     FM061500 35019G28KT P6SM SCT250
     FM062200 02016G24KT P6SM SCT200
     FM070100 02010KT P6SM SCT200=

USA.gov is the U.S. government's official web portal to all federal, state and local government web resources and services.